createdAt,value
2019-03-17T00:02:23.909Z,1.90
2019-03-17T00:04:51.862Z,2.05
2019-03-17T00:07:20.100Z,1.80
2019-03-17T00:09:47.951Z,2.25
2019-03-17T00:12:15.900Z,2.12
2019-03-17T00:14:43.762Z,2.33
2019-03-17T00:17:11.667Z,2.12
2019-03-17T00:19:39.521Z,2.00
2019-03-17T00:22:07.459Z,1.87
2019-03-17T00:24:35.311Z,1.75
2019-03-17T00:27:03.206Z,1.87
2019-03-17T00:29:31.145Z,2.15
2019-03-17T00:31:59.034Z,2.08
2019-03-17T00:34:26.971Z,1.80
2019-03-17T00:36:54.959Z,2.12
2019-03-17T00:39:23.149Z,2.52
2019-03-17T00:41:51.081Z,2.20
2019-03-17T00:44:19.032Z,2.35
2019-03-17T00:46:46.928Z,1.92
2019-03-17T00:49:14.778Z,2.10
2019-03-17T00:51:42.678Z,1.98
2019-03-17T00:54:10.534Z,2.40
2019-03-17T00:56:38.433Z,2.20
2019-03-17T00:59:06.377Z,2.00
2019-03-17T01:01:34.328Z,2.00
2019-03-17T01:04:02.340Z,2.15
2019-03-17T01:06:30.257Z,2.25
2019-03-17T01:08:58.202Z,2.05
2019-03-17T01:11:27.426Z,2.10
2019-03-17T01:13:55.413Z,2.17
2019-03-17T01:16:23.389Z,1.87
2019-03-17T01:18:51.306Z,2.08
2019-03-17T01:21:19.158Z,2.22
2019-03-17T01:23:46.988Z,2.02
2019-03-17T01:26:14.953Z,2.35
2019-03-17T01:28:42.912Z,2.20
2019-03-17T01:31:11.101Z,2.20
2019-03-17T01:33:39.079Z,2.40
2019-03-17T01:36:07.046Z,2.37
2019-03-17T01:38:35.019Z,2.10
2019-03-17T01:41:02.967Z,2.27
2019-03-17T01:43:30.805Z,1.95
2019-03-17T01:45:58.777Z,2.00
2019-03-17T01:48:26.649Z,2.00
2019-03-17T01:50:54.542Z,1.90
2019-03-17T01:53:22.625Z,2.00
2019-03-17T01:55:50.487Z,2.30
2019-03-17T01:58:18.341Z,2.05
2019-03-17T02:00:46.721Z,1.98
2019-03-17T02:03:14.677Z,2.00
2019-03-17T02:05:42.686Z,1.87
2019-03-17T02:08:10.683Z,1.90
2019-03-17T02:10:38.670Z,2.10
2019-03-17T02:13:06.537Z,2.15
2019-03-17T02:15:34.446Z,2.30
2019-03-17T02:18:02.414Z,2.50
2019-03-17T02:20:30.476Z,2.17
2019-03-17T02:22:58.439Z,2.37
2019-03-17T02:25:26.349Z,2.27
2019-03-17T02:27:54.294Z,2.25
2019-03-17T02:30:22.253Z,2.52
2019-03-17T02:32:50.137Z,2.40
2019-03-17T02:35:18.205Z,2.10
2019-03-17T02:37:46.182Z,2.15
2019-03-17T02:40:14.126Z,2.30
2019-03-17T02:42:42.125Z,2.30
2019-03-17T02:45:10.057Z,2.42
2019-03-17T02:47:38.037Z,2.10
2019-03-17T02:50:06.083Z,2.33
2019-03-17T02:52:34.073Z,2.47
2019-03-17T02:55:01.952Z,2.27
2019-03-17T02:57:29.941Z,2.17
2019-03-17T02:59:57.901Z,2.10
2019-03-17T03:02:25.910Z,2.00
2019-03-17T03:04:53.865Z,2.85
2019-03-17T03:07:21.841Z,3.25
2019-03-17T03:09:50.044Z,2.90
2019-03-17T03:12:18.068Z,2.60
2019-03-17T03:14:46.051Z,2.90
2019-03-17T03:17:14.019Z,2.98
2019-03-17T03:19:41.988Z,3.17
2019-03-17T03:22:10.142Z,2.92
2019-03-17T03:24:38.017Z,3.55
2019-03-17T03:27:05.916Z,3.20
2019-03-17T03:29:33.849Z,3.42
2019-03-17T03:32:01.786Z,4.12
2019-03-17T03:34:29.836Z,3.30
2019-03-17T03:36:57.812Z,3.52
2019-03-17T03:39:25.766Z,3.12
2019-03-17T03:41:53.702Z,4.60
2019-03-17T03:44:21.676Z,3.60
2019-03-17T03:46:49.572Z,3.85
2019-03-17T03:49:17.448Z,4.10
2019-03-17T03:51:45.377Z,4.85
2019-03-17T03:54:13.202Z,4.33
2019-03-17T03:56:41.126Z,4.75
2019-03-17T03:59:09.102Z,4.20
2019-03-17T04:01:37.084Z,4.17
2019-03-17T04:04:05.113Z,4.47
2019-03-17T04:06:33.174Z,4.00
2019-03-17T04:09:01.407Z,4.47
2019-03-17T04:11:29.316Z,4.80
2019-03-17T04:13:57.296Z,4.62
2019-03-17T04:16:25.281Z,4.53
2019-03-17T04:18:53.150Z,4.53
2019-03-17T04:21:23.037Z,4.30
2019-03-17T04:23:50.995Z,4.15
2019-03-17T04:26:18.970Z,4.08
2019-03-17T04:28:46.884Z,4.58
2019-03-17T04:31:14.917Z,4.40
2019-03-17T04:33:42.935Z,5.17
2019-03-17T04:36:10.815Z,4.17
2019-03-17T04:38:38.822Z,4.03
2019-03-17T04:41:06.889Z,4.97
2019-03-17T04:43:34.884Z,4.20
2019-03-17T04:46:02.837Z,4.58
2019-03-17T04:48:30.728Z,4.72
2019-03-17T04:51:00.608Z,4.45
2019-03-17T04:53:28.482Z,4.42
2019-03-17T04:55:56.437Z,4.40
2019-03-17T04:58:24.351Z,4.22
2019-03-17T05:00:52.244Z,3.95
2019-03-17T05:03:20.568Z,4.62
2019-03-17T05:05:48.543Z,4.50
2019-03-17T05:08:16.501Z,5.00
2019-03-17T05:10:44.431Z,4.58
2019-03-17T05:13:12.394Z,4.92
2019-03-17T05:15:40.548Z,4.12
2019-03-17T05:18:08.469Z,4.20
2019-03-17T05:20:36.364Z,4.08
2019-03-17T05:23:05.912Z,4.70
2019-03-17T05:25:34.038Z,4.22
2019-03-17T05:28:02.009Z,4.50
2019-03-17T05:30:29.892Z,4.20
2019-03-17T05:32:57.772Z,4.35
2019-03-17T05:35:25.796Z,4.62
2019-03-17T05:37:53.665Z,4.10
2019-03-17T05:40:21.583Z,4.03
2019-03-17T05:42:49.458Z,4.53
2019-03-17T05:45:17.441Z,5.15
2019-03-17T05:47:45.279Z,4.55
2019-03-17T05:50:13.191Z,4.47
2019-03-17T05:52:41.150Z,4.62
2019-03-17T05:55:09.050Z,4.92
2019-03-17T05:57:36.908Z,5.22
2019-03-17T06:00:04.889Z,4.67
2019-03-17T06:02:32.793Z,4.97
2019-03-17T06:05:00.764Z,5.12
2019-03-17T06:07:29.150Z,4.90
2019-03-17T06:09:57.148Z,4.67
2019-03-17T06:17:54.495Z,7.75
2019-03-17T06:20:22.342Z,9.55
2019-03-17T06:22:50.353Z,6.45
2019-03-17T06:25:18.255Z,5.85
2019-03-17T06:27:46.153Z,6.78
2019-03-17T06:30:14.226Z,7.55
2019-03-17T06:32:42.188Z,9.85
2019-03-17T06:35:10.085Z,9.23
2019-03-17T06:37:37.964Z,6.65
2019-03-17T06:40:05.925Z,8.38
2019-03-17T06:42:33.875Z,9.90
2019-03-17T06:45:02.489Z,8.05
2019-03-17T06:47:30.541Z,5.62
2019-03-17T06:49:58.503Z,7.25
2019-03-17T06:52:26.466Z,7.90
2019-03-17T06:54:54.415Z,5.90
2019-03-17T06:57:22.306Z,9.03
2019-03-17T06:59:50.838Z,8.08
2019-03-17T07:02:18.823Z,18.65
2019-03-17T07:04:46.806Z,10.00
2019-03-17T07:07:14.765Z,7.17
2019-03-17T07:09:42.764Z,5.50
2019-03-17T07:12:10.663Z,5.45
2019-03-17T07:14:38.554Z,5.83
2019-03-17T07:17:06.518Z,5.83
2019-03-17T07:19:34.416Z,6.35
2019-03-17T07:22:02.371Z,5.90
2019-03-17T07:24:30.259Z,6.28
2019-03-17T07:26:58.126Z,8.55
2019-03-17T07:29:26.382Z,7.58
2019-03-17T07:31:54.323Z,6.03
2019-03-17T07:34:22.307Z,5.30
2019-03-17T07:36:50.343Z,6.20
2019-03-17T07:39:18.236Z,4.50
2019-03-17T07:41:46.180Z,3.85
2019-03-17T07:44:14.133Z,4.12
2019-03-17T07:46:42.126Z,3.98
2019-03-17T07:49:10.020Z,4.05
2019-03-17T07:51:38.839Z,3.75
2019-03-17T07:54:06.695Z,4.05
2019-03-17T07:56:34.624Z,3.75
2019-03-17T07:59:02.599Z,3.83
2019-03-17T08:01:30.667Z,3.83
2019-03-17T08:03:58.573Z,4.20
2019-03-17T08:06:26.533Z,5.83
2019-03-17T08:08:54.396Z,4.20
2019-03-17T08:11:22.402Z,3.92
2019-03-17T08:13:50.271Z,3.87
2019-03-17T08:16:18.433Z,3.55
2019-03-17T08:18:46.313Z,3.85
2019-03-17T08:21:14.197Z,3.50
2019-03-17T08:23:42.076Z,7.12
2019-03-17T08:26:10.008Z,3.30
2019-03-17T08:28:37.948Z,3.40
2019-03-17T08:31:05.887Z,3.95
2019-03-17T08:33:33.740Z,3.60
2019-03-17T08:36:01.637Z,3.87
2019-03-17T08:38:29.540Z,3.42
2019-03-17T08:40:57.506Z,3.42
2019-03-17T08:43:25.411Z,4.15
2019-03-17T08:45:53.284Z,3.50
2019-03-17T08:48:21.183Z,3.67
2019-03-17T08:50:49.077Z,3.45
2019-03-17T08:53:16.978Z,3.52
2019-03-17T08:55:44.864Z,3.77
2019-03-17T08:58:12.847Z,3.35
2019-03-17T09:00:40.716Z,3.17
2019-03-17T09:03:08.610Z,2.80
2019-03-17T09:05:36.471Z,3.27
2019-03-17T09:08:04.351Z,4.12
2019-03-17T09:10:34.164Z,3.87
2019-03-17T09:13:04.275Z,3.27
2019-03-17T09:15:31.690Z,3.33
2019-03-17T09:17:59.575Z,2.90
2019-03-17T09:20:27.513Z,2.40
2019-03-17T09:22:55.389Z,2.67
2019-03-17T09:25:23.341Z,2.37
2019-03-17T09:27:51.372Z,3.10
2019-03-17T09:30:19.498Z,2.72
2019-03-17T09:33:06.355Z,2.60
2019-03-17T09:35:34.327Z,2.85
2019-03-17T09:38:02.294Z,3.62
2019-03-17T09:40:30.142Z,3.83
2019-03-17T09:42:58.242Z,4.22
2019-03-17T09:45:26.256Z,1.62
2019-03-17T09:47:54.265Z,1.98
2019-03-17T09:50:22.272Z,0.90
2019-03-17T09:52:50.255Z,1.00
2019-03-17T09:55:18.189Z,0.93
2019-03-17T09:57:46.054Z,0.85
2019-03-17T10:00:13.999Z,0.88
2019-03-17T10:02:41.886Z,0.78
2019-03-17T10:05:09.723Z,0.80
2019-03-17T10:07:37.566Z,0.72
2019-03-17T10:10:05.421Z,0.70
2019-03-17T10:12:33.284Z,0.60
2019-03-17T10:15:01.148Z,0.70
2019-03-17T10:17:29.116Z,0.70
2019-03-17T10:20:00.392Z,1.00
2019-03-17T10:22:28.531Z,0.50
2019-03-17T10:24:57.637Z,0.40
2019-03-17T10:27:25.811Z,0.50
2019-03-17T10:29:53.813Z,0.50
2019-03-17T10:32:21.977Z,0.40
2019-03-17T10:34:50.066Z,0.40
2019-03-17T10:37:18.138Z,0.90
2019-03-17T10:39:46.094Z,0.50
2019-03-17T10:42:14.075Z,0.70
2019-03-17T10:44:45.168Z,1.40
2019-03-17T10:47:13.227Z,0.93
2019-03-17T10:49:41.242Z,0.68
2019-03-17T10:52:09.217Z,0.50
2019-03-17T10:54:37.306Z,0.80
2019-03-17T10:57:05.453Z,1.00
2019-03-17T10:59:36.257Z,1.00
2019-03-17T11:02:04.281Z,0.68
2019-03-17T11:04:33.422Z,0.50
2019-03-17T11:07:01.563Z,0.70
2019-03-17T11:09:29.521Z,1.12
2019-03-17T11:11:58.600Z,0.75
2019-03-17T11:14:26.634Z,0.78
2019-03-17T11:16:54.734Z,0.82
2019-03-17T11:19:25.481Z,0.80
2019-03-17T11:21:52.393Z,0.80
2019-03-17T11:24:39.285Z,0.50
2019-03-17T11:27:07.312Z,0.40
2019-03-17T11:29:35.451Z,0.60
2019-03-17T11:32:06.566Z,0.68
2019-03-17T11:34:34.273Z,0.70
2019-03-17T11:37:02.106Z,0.72
2019-03-17T11:39:37.650Z,0.70
2019-03-17T11:41:59.783Z,2.47
2019-03-17T11:44:27.811Z,3.27
2019-03-17T11:46:55.764Z,1.60
2019-03-17T11:49:23.827Z,0.70
2019-03-17T11:51:51.926Z,1.10
2019-03-17T11:54:20.104Z,1.00
2019-03-17T11:56:48.466Z,1.30
2019-03-17T11:59:16.404Z,1.10
2019-03-17T12:01:45.264Z,2.67
2019-03-17T12:04:13.203Z,1.00
2019-03-17T12:06:41.214Z,1.22
2019-03-17T12:09:09.214Z,1.32
2019-03-17T12:11:39.196Z,1.15
2019-03-17T12:14:09.689Z,1.00
2019-03-17T12:16:55.526Z,1.00
2019-03-17T12:19:23.660Z,0.93
2019-03-17T12:21:54.856Z,1.00
2019-03-17T12:24:22.730Z,0.88
2019-03-17T12:26:50.828Z,1.12
2019-03-17T12:29:20.187Z,1.40
2019-03-17T12:31:48.270Z,1.50
2019-03-17T12:34:27.564Z,1.10
2019-03-17T12:36:47.577Z,0.95
2019-03-17T12:39:17.416Z,1.00
2019-03-17T12:41:45.387Z,1.12
2019-03-17T12:44:13.371Z,0.90
2019-03-17T12:46:41.342Z,1.10
2019-03-17T12:49:09.464Z,1.12
2019-03-17T12:51:37.466Z,0.80
2019-03-17T12:54:05.565Z,0.80
2019-03-17T12:56:33.691Z,0.82
2019-03-17T12:59:01.594Z,0.80
2019-03-17T13:01:29.541Z,1.10
2019-03-17T13:03:57.565Z,0.90
2019-03-17T13:06:25.558Z,0.93
2019-03-17T13:08:53.391Z,0.90
2019-03-17T13:11:21.316Z,1.17
2019-03-17T13:13:49.338Z,0.80
2019-03-17T13:16:19.024Z,1.12
2019-03-17T13:18:46.997Z,1.00
2019-03-17T13:21:14.944Z,0.90
2019-03-17T13:23:45.041Z,0.90
2019-03-17T13:26:13.165Z,0.93
2019-03-17T13:28:41.289Z,1.05
2019-03-17T13:31:09.347Z,0.85
2019-03-17T13:33:39.342Z,0.82
2019-03-17T13:36:07.251Z,0.80
2019-03-17T13:38:38.028Z,0.85
2019-03-17T13:41:06.027Z,0.90
2019-03-17T13:43:34.155Z,0.95
2019-03-17T13:46:03.424Z,0.80
2019-03-17T13:48:31.442Z,0.80
2019-03-17T13:50:59.444Z,0.78
2019-03-17T13:53:28.442Z,0.90
2019-03-17T13:55:56.451Z,1.00
2019-03-17T13:58:24.523Z,0.80
2019-03-17T14:00:52.537Z,0.80
2019-03-17T14:03:21.849Z,0.90
2019-03-17T14:05:52.706Z,1.32
2019-03-17T14:08:20.690Z,1.00
2019-03-17T14:10:48.680Z,1.10
2019-03-17T14:13:16.686Z,1.00
2019-03-17T14:15:44.798Z,1.07
2019-03-17T14:18:12.784Z,0.85
2019-03-17T14:20:40.867Z,0.90
2019-03-17T14:23:08.932Z,0.72
2019-03-17T14:25:38.143Z,2.77
2019-03-17T14:28:06.050Z,1.87
2019-03-17T14:30:34.141Z,6.15
2019-03-17T14:33:02.061Z,10.93
2019-03-17T14:35:29.973Z,2.77
2019-03-17T14:37:57.850Z,1.10
2019-03-17T14:40:25.859Z,2.90
2019-03-17T14:42:55.511Z,1.95
2019-03-17T14:45:26.804Z,1.07
2019-03-17T14:47:54.755Z,1.00
2019-03-17T14:50:22.765Z,1.50
2019-03-17T14:52:50.721Z,1.30
2019-03-17T14:55:18.711Z,0.82
2019-03-17T14:57:46.811Z,0.95
2019-03-17T15:00:14.888Z,0.90
2019-03-17T15:02:42.943Z,0.90
2019-03-17T15:05:13.303Z,0.40
2019-03-17T15:07:45.770Z,0.47
2019-03-17T15:10:13.852Z,0.50
2019-03-17T15:12:41.966Z,0.42
2019-03-17T15:15:09.997Z,0.60
2019-03-17T15:17:38.098Z,0.60
2019-03-17T15:20:09.170Z,0.80
2019-03-17T15:22:37.155Z,5.35
2019-03-17T15:25:05.216Z,3.40
2019-03-17T15:27:33.320Z,1.87
2019-03-17T15:30:01.269Z,0.90
2019-03-17T15:32:29.267Z,0.60
2019-03-17T15:34:57.744Z,0.47
2019-03-17T15:37:25.803Z,0.50
2019-03-17T15:39:53.836Z,0.60
2019-03-17T15:42:21.911Z,0.60
2019-03-17T15:44:49.990Z,0.50
2019-03-17T15:47:18.058Z,0.55
2019-03-17T15:49:46.079Z,0.40
2019-03-17T15:52:15.147Z,0.55
2019-03-17T15:54:43.698Z,0.45
2019-03-17T15:57:11.956Z,0.50
2019-03-17T15:59:40.033Z,0.72
2019-03-17T16:02:10.747Z,0.60
2019-03-17T16:04:38.620Z,0.60
2019-03-17T16:07:06.853Z,0.60
2019-03-17T16:09:35.101Z,0.60
2019-03-17T16:12:03.052Z,0.80
2019-03-17T16:14:31.134Z,0.62
2019-03-17T16:16:59.263Z,0.90
2019-03-17T16:19:27.549Z,0.65
2019-03-17T16:21:55.540Z,0.50
2019-03-17T16:24:23.593Z,0.70
2019-03-17T16:26:51.620Z,0.93
2019-03-17T16:29:19.784Z,0.80
2019-03-17T16:31:48.057Z,0.75
2019-03-17T16:34:16.113Z,0.60
2019-03-17T16:36:44.003Z,0.85
2019-03-17T16:39:11.971Z,0.70
2019-03-17T16:41:43.807Z,0.90
2019-03-17T16:44:09.524Z,0.50
2019-03-17T16:46:37.439Z,0.75
2019-03-17T16:49:08.614Z,0.75
2019-03-17T16:51:36.528Z,0.80
2019-03-17T16:54:04.551Z,0.80
2019-03-17T16:56:32.657Z,0.90
2019-03-17T16:59:00.791Z,0.60
2019-03-17T17:01:28.907Z,1.45
2019-03-17T17:03:57.108Z,1.02
2019-03-17T17:06:25.561Z,0.85
2019-03-17T17:08:53.668Z,0.70
2019-03-17T17:11:21.846Z,1.17
2019-03-17T17:13:52.119Z,0.70
2019-03-17T17:16:20.195Z,0.93
2019-03-17T17:18:48.175Z,0.70
2019-03-17T17:21:16.400Z,0.70
2019-03-17T17:23:44.558Z,0.72
2019-03-17T17:26:15.676Z,1.10
2019-03-17T17:28:43.764Z,0.98
2019-03-17T17:31:11.804Z,0.78
2019-03-17T17:33:40.217Z,0.98
2019-03-17T17:36:08.465Z,0.90
2019-03-17T17:38:36.594Z,0.90
2019-03-17T17:41:04.668Z,0.80
2019-03-17T17:43:32.820Z,0.70
2019-03-17T17:46:00.896Z,1.00
2019-03-17T17:48:28.871Z,1.00
2019-03-17T17:50:56.891Z,0.90
2019-03-17T17:53:24.954Z,0.93
2019-03-17T17:55:53.147Z,1.17
2019-03-17T17:58:21.185Z,0.90
2019-03-17T18:00:49.841Z,1.00
2019-03-17T18:03:17.845Z,1.42
2019-03-17T18:05:46.576Z,2.00
2019-03-17T18:08:14.554Z,1.40
2019-03-17T18:10:42.649Z,1.10
2019-03-17T18:13:10.831Z,0.90
2019-03-17T18:15:38.930Z,1.00
2019-03-17T18:18:08.486Z,1.30
2019-03-17T18:20:36.600Z,0.90
2019-03-17T18:23:16.977Z,1.02
2019-03-17T18:25:34.482Z,1.07
2019-03-17T18:28:06.258Z,0.98
2019-03-17T18:30:34.828Z,0.85
2019-03-17T18:33:03.146Z,0.80
2019-03-17T18:35:31.553Z,1.10
2019-03-17T18:37:59.835Z,1.00
2019-03-17T18:40:32.964Z,1.00
2019-03-17T18:43:01.218Z,0.90
2019-03-17T18:45:32.395Z,1.00
2019-03-17T18:48:00.426Z,1.07
2019-03-17T18:50:28.586Z,0.90
2019-03-17T18:52:56.570Z,0.80
2019-03-17T18:55:24.690Z,0.90
2019-03-17T18:57:52.731Z,1.15
2019-03-17T19:00:20.855Z,1.20
2019-03-17T19:02:49.155Z,1.22
2019-03-17T19:05:19.954Z,0.90
2019-03-17T19:07:49.857Z,1.00
2019-03-17T19:10:19.386Z,1.22
2019-03-17T19:12:48.841Z,1.30
2019-03-17T19:15:22.846Z,1.20
2019-03-17T19:17:52.626Z,1.60
2019-03-17T19:20:20.680Z,1.20
2019-03-17T19:22:48.742Z,1.35
2019-03-17T19:25:16.675Z,1.27
2019-03-17T19:27:44.773Z,0.93
2019-03-17T19:30:12.764Z,1.00
2019-03-17T19:32:40.846Z,1.10
2019-03-17T19:35:08.796Z,1.20
2019-03-17T19:37:36.828Z,1.10
2019-03-17T19:40:04.924Z,1.40
2019-03-17T19:42:33.066Z,1.10
2019-03-17T19:45:01.008Z,1.00
2019-03-17T19:47:29.096Z,1.10
2019-03-17T19:49:59.295Z,0.93
2019-03-17T19:52:27.298Z,1.10
2019-03-17T19:54:55.232Z,1.40
2019-03-17T19:57:23.298Z,0.95
2019-03-17T19:59:53.441Z,0.88
2019-03-17T20:02:21.466Z,1.00
2019-03-17T20:04:51.147Z,1.00
2019-03-17T20:07:19.064Z,1.00
2019-03-17T20:09:47.169Z,0.90
2019-03-17T20:12:15.256Z,0.90
2019-03-17T20:14:44.472Z,0.88
2019-03-17T20:17:12.572Z,1.15
2019-03-17T20:19:40.536Z,0.90
2019-03-17T20:22:08.568Z,0.95
2019-03-17T20:24:38.024Z,0.90
2019-03-17T20:27:08.139Z,0.90
2019-03-17T20:29:36.149Z,0.80
2019-03-17T20:32:08.021Z,1.00
2019-03-17T20:34:36.122Z,0.70
2019-03-17T20:37:04.198Z,0.80
2019-03-17T20:39:32.288Z,0.75
2019-03-17T20:42:01.872Z,0.70
2019-03-17T20:44:29.944Z,0.78
2019-03-17T20:46:57.891Z,0.75
2019-03-17T20:49:25.870Z,0.93
2019-03-17T20:51:53.730Z,0.98
2019-03-17T20:54:21.610Z,0.90
2019-03-17T20:56:49.485Z,1.20
2019-03-17T20:59:17.359Z,1.12
2019-03-17T21:01:45.335Z,0.90
2019-03-17T21:04:13.301Z,0.80
2019-03-17T21:06:41.193Z,1.30
2019-03-17T21:09:09.161Z,1.20
2019-03-17T21:11:37.140Z,1.30
2019-03-17T21:14:05.106Z,1.02
2019-03-17T21:16:33.101Z,1.10
2019-03-17T21:19:01.138Z,1.60
2019-03-17T21:21:29.126Z,1.60
2019-03-17T21:23:57.009Z,1.40
2019-03-17T21:26:25.001Z,1.70
2019-03-17T21:28:53.272Z,1.87
2019-03-17T21:31:21.560Z,1.70
2019-03-17T21:33:49.507Z,1.62
2019-03-17T21:36:17.818Z,2.08
2019-03-17T21:38:45.763Z,1.60
2019-03-17T21:41:13.820Z,1.95
2019-03-17T21:43:41.683Z,1.77
2019-03-17T21:46:09.647Z,1.57
2019-03-17T21:48:37.585Z,1.60
2019-03-17T21:51:05.599Z,1.50
2019-03-17T21:53:33.654Z,1.17
2019-03-17T21:56:01.603Z,1.50
2019-03-17T21:58:29.481Z,1.25
2019-03-17T22:00:57.461Z,1.50
2019-03-17T22:03:25.304Z,1.20
2019-03-17T22:05:53.254Z,1.35
2019-03-17T22:08:21.255Z,1.65
2019-03-17T22:10:49.283Z,1.27
2019-03-17T22:13:17.226Z,1.30
2019-03-17T22:15:45.111Z,1.20
2019-03-17T22:18:13.150Z,1.10
2019-03-17T22:20:41.007Z,1.20
2019-03-17T22:23:08.997Z,1.52
2019-03-17T22:25:36.900Z,1.40
2019-03-17T22:28:08.491Z,1.15
2019-03-17T22:30:34.521Z,1.60
2019-03-17T22:33:02.376Z,1.30
2019-03-17T22:35:30.825Z,1.50
2019-03-17T22:37:58.809Z,1.27
2019-03-17T22:40:26.869Z,1.27
2019-03-17T22:42:54.823Z,1.12
2019-03-17T22:45:22.688Z,1.37
2019-03-17T22:47:50.561Z,1.32
2019-03-17T22:50:18.521Z,0.85
2019-03-17T22:52:46.470Z,1.40
2019-03-17T22:55:14.354Z,1.10
2019-03-17T22:57:42.319Z,0.88
2019-03-17T23:00:10.571Z,1.20
2019-03-17T23:02:38.581Z,1.22
2019-03-17T23:05:06.508Z,1.25
2019-03-17T23:07:34.403Z,1.00
2019-03-17T23:10:02.346Z,1.40
2019-03-17T23:12:30.253Z,1.07
2019-03-17T23:14:58.190Z,1.12
2019-03-17T23:17:26.131Z,1.00
2019-03-17T23:19:53.973Z,1.20
2019-03-17T23:22:21.983Z,1.00
2019-03-17T23:24:49.853Z,1.07
2019-03-17T23:27:17.874Z,1.32
2019-03-17T23:29:45.962Z,1.20
2019-03-17T23:32:14.037Z,1.20
2019-03-17T23:34:42.019Z,1.50
2019-03-17T23:37:09.954Z,2.30
2019-03-17T23:39:37.883Z,2.05
2019-03-17T23:42:05.859Z,2.70
2019-03-17T23:44:33.872Z,2.42
2019-03-17T23:47:01.794Z,2.05
2019-03-17T23:49:29.731Z,1.57
2019-03-17T23:51:57.672Z,1.67
2019-03-17T23:54:25.583Z,1.40
2019-03-17T23:56:53.427Z,1.17
2019-03-17T23:59:21.377Z,1.60
